Ruby Princess — ZCDY2 — position and weather

sailwx.info

Track history (hours):
 
Tides and Currents Weather Stations Pressure Air Temp Water Temp Dewpoint Dewpoint Depression Visibility Wind Speed Wind Dir Waves Ship Positions

Ruby Princess

Last reported at 2019-May-20 15:00 UTC. Time now 2019-May-20 16:40 UTC.
Position N 57°30' W 133°42'.

Length 289 m; draft 8.7 m.

Type: Ship. MMSI: 310567000.

Wind from 320 at 25 knots

Barometer 1006.8 mb
Air temperature 10.5 ° C
Visibility: greater than 10.8 NM
Dewpoint 7.4 ° C
Water temperature 9.0 ° C

Date/timePositionNaut miles runAvg speedWind from/ knotsBaromVisibWave heightAir tempDewpointWater temp
2019-May-20 15:00N 57°30' W 133°42'8116.3 320 / 251006.810.8 10.5 7.4 9.0
2019-May-20 10:00N 56°12' W 134°24'9122.8 330 / 201006.910.8 9.0 8.0 8.0
2019-May-20 06:00N 54°42' W 134°00'18022.5 320 / 141007.710.8 9.5 8.5 8.0
2019-May-19 22:00N 52°00' W 131°48'5319.5 230 / 111008.810.8 11.5 8.510.0
2019-May-19 19:16N 51°26' W 130°43'621.9
2019-May-19 18:59N 51°22' W 130°35'1921.9
2019-May-19 18:06N 51°09' W 130°12'221.8
2019-May-19 18:00N 51°07' W 130°10'3194.5
2019-May-19 18:00N 51°06' W 130°06'817.3 280 / 111008.410.8 11.3 8.711.0
2019-May-19 17:31N 50°60' W 129°57'1121.9
2019-May-19 17:01N 50°53' W 129°44'1121.7
2019-May-19 16:30N 50°45' W 129°31'1121.9
2019-May-19 16:00N 50°38' W 129°19'1521.7
2019-May-19 15:20N 50°28' W 129°02'722.4
2019-May-19 15:01N 50°23' W 128°54'1122.0
2019-May-19 14:31N 50°15' W 128°41'5 8.8
2019-May-19 14:00N 50°12' W 128°36'7926.5 350 / 91006.710.8 11.0 9.010.0
2019-May-19 11:00N 49°18' W 127°06'1713.4 230 / 181010.310.8 11.5 8.510.0
2019-May-19 09:45N 49°11' W 126°43'621.0
2019-May-19 09:29N 49°08' W 126°36'1020.6
2019-May-19 09:00N 49°02' W 126°23'1020.9
2019-May-19 08:30N 48°56' W 126°10'1020.7
2019-May-19 08:00N 48°50' W 125°57'1020.9
2019-May-19 07:30N 48°44' W 125°45'1020.5
2019-May-19 07:01N 48°38' W 125°32'1121.2
2019-May-19 06:30N 48°32' W 125°18'1021.4
2019-May-19 06:01N 48°32' W 125°02'3168.4
2019-May-19 06:00N 48°30' W 125°06'1327.2 300 / 141003.910.8 13.0 9.113.0
2019-May-19 05:30N 48°32' W 124°46'1121.8
2019-May-19 05:01N 48°27' W 124°31'1223.1
2019-May-19 04:31N 48°23' W 124°15'1223.0
2019-May-19 04:00N 48°18' W 123°59'1223.0
2019-May-19 03:28N 48°16' W 123°41'1122.5
2019-May-19 03:00N 48°13' W 123°26'913.7
2019-May-19 02:21N 48°11' W 123°13'718.7
2019-May-19 02:00N 48°06' W 123°06'7573.4 220 / 81004.910.8 13.6 6.112.0
2019-May-19 01:59N 48°12' W 123°01'1520.6
2019-May-19 01:17N 48°08' W 122°41'820.4
2019-May-19 00:54N 48°00' W 122°37'820.3
2019-May-19 00:30N 47°55' W 122°29'1121.4
2019-May-19 00:00N 47°44' W 122°26'713.9
2019-May-18 23:30N 47°37' W 122°23'1 0.9
2019-May-18 22:58N 47°38' W 122°23'0 0.0
2019-May-18 22:28N 47°38' W 122°23'0 0.0
2019-May-18 21:58N 47°38' W 122°23'0 0.0
2019-May-18 21:25N 47°38' W 122°23'0 0.0
2019-May-18 20:58N 47°38' W 122°23'0 0.0
2019-May-18 20:30N 47°38' W 122°23'0 0.0
2019-May-18 19:57N 47°38' W 122°23'0 0.0
2019-May-18 19:30N 47°38' W 122°23'0 0.0
2019-May-18 19:00N 47°38' W 122°23'0 0.0
2019-May-18 18:29N 47°38' W 122°23'0 0.0
2019-May-18 17:56N 47°38' W 122°23'0 0.0
2019-May-18 17:29N 47°38' W 122°23'0 0.0
2019-May-18 16:57N 47°38' W 122°23'0 0.0
2019-May-18 16:29N 47°38' W 122°23'0 0.0
2019-May-18 15:58N 47°38' W 122°23'0 0.0
2019-May-18 15:28N 47°38' W 122°23'0 0.0
2019-May-18 14:58N 47°38' W 122°23'0 0.0
2019-May-18 14:25N 47°38' W 122°23'0 0.0
2019-May-18 13:52N 47°38' W 122°23'0 0.0
2019-May-18 13:30N 47°38' W 122°23'0 0.3
2019-May-18 13:01N 47°38' W 122°23'2 3.6
2019-May-18 12:30N 47°37' W 122°26'612.1
2019-May-18 12:00N 47°43' W 122°28'815.4
2019-May-18 11:30N 47°51' W 122°28'814.9
2019-May-18 11:00N 47°57' W 122°34'815.4
2019-May-18 10:27N 48°05' W 122°40'815.0
2019-May-18 09:55N 48°11' W 122°48'815.8
2019-May-18 09:24N 48°12' W 123°00'615.6
2019-May-18 09:00N 48°12' W 123°10'816.3
2019-May-18 08:31N 48°10' W 123°22'1012.3
2019-May-18 07:41N 48°20' W 123°27'313.1
2019-May-18 07:29N 48°22' W 123°25'3 6.9
2019-May-18 07:00N 48°25' W 123°24'0 0.3
2019-May-18 06:30N 48°25' W 123°23'0 0.0
2019-May-18 06:00N 48°25' W 123°23'0 0.0
2019-May-18 05:30N 48°25' W 123°23'0 0.0
2019-May-18 05:00N 48°25' W 123°23'0 0.0
2019-May-18 04:29N 48°25' W 123°23'0 0.0
2019-May-18 03:59N 48°25' W 123°23'0 0.0
2019-May-18 03:29N 48°25' W 123°23'0 0.0
2019-May-18 02:59N 48°25' W 123°23'0 0.0
2019-May-18 02:28N 48°25' W 123°23'0 0.0
2019-May-18 01:59N 48°25' W 123°23'1 1.5
2019-May-18 01:30N 48°25' W 123°24'4 7.6
2019-May-18 01:00N 48°21' W 123°24'1416.1
2019-May-18 00:07N 48°13' W 123°42'221.1
2019-May-18 00:00N 48°13' W 123°46'1020.0
2019-May-17 23:29N 48°16' W 124°01'918.7
2019-May-17 23:00N 48°19' W 124°13'918.9
2019-May-17 22:30N 48°23' W 124°26'1020.0
2019-May-17 22:01N 48°28' W 124°39'1019.7
2019-May-17 21:31N 48°29' W 124°54'1019.9
2019-May-17 21:01N 48°29' W 125°09'1019.3
2019-May-17 20:31N 48°34' W 125°22'1020.8
2019-May-17 20:00N 48°39' W 125°35'1019.7
2019-May-17 19:30N 48°44' W 125°48'1019.1
2019-May-17 19:01N 48°49' W 126°01'1020.7
2019-May-17 18:31N 48°55' W 126°13'1121.9
2019-May-17 18:00N 49°02' W 126°27'3170.4
2019-May-17 18:00N 49°00' W 126°24'1427.1 120 / 191009.910.8 11.5 6.212.0
2019-May-17 17:28N 49°09' W 126°41'7120.5
2019-May-17 14:00N 49°54' W 128°06'7318.3 150 / 161005.910.8 10.0 5.6 9.0
2019-May-17 10:00N 50°54' W 129°12'8643.2 190 / 51004.710.8 9.5 5.111.0
2019-May-17 08:00N 52°12' W 130°12'7917.6 180 / 61003.410.8 9.4 7.111.0
2019-May-17 03:29N 53°26' W 131°01'1122.3
2019-May-17 03:00N 53°36' W 131°01'6666.0
2019-May-17 03:00N 53°30' W 131°00'1836.2 040 / 101003.410.8 9.0 8.010.0
2019-May-17 02:30N 53°47' W 131°02'1122.8
2019-May-17 02:01N 53°59' W 131°02'1122.6
2019-May-17 01:31N 54°10' W 131°02'1121.9
2019-May-17 01:01N 54°21' W 131°08'1121.5
2019-May-17 00:30N 54°30' W 131°18'1422.1
2019-May-16 23:52N 54°41' W 131°32'189 9.1
2019-May-16 03:00N 57°18' W 134°42'6419.1 160 / 141011.110.8 9.9 6.510.0
2019-May-15 23:39N 58°15' W 135°36'319.9
2019-May-15 23:29N 58°17' W 135°41'918.9
2019-May-15 23:00N 58°20' W 135°57'713.7
2019-May-15 22:30N 58°27' W 136°01'917.2
2019-May-15 22:00N 58°35' W 136°04'1020.0
2019-May-15 21:30N 58°43' W 136°15'1120.2
2019-May-15 20:59N 58°50' W 136°31'10 1.7
2019-May-15 15:17N 58°44' W 136°16'518.9
2019-May-15 15:00N 58°40' W 136°10'3192.3
2019-May-15 15:00N 58°42' W 136°12'1123.4 270 / 91012.110.8 8.5 7.4 9.0
2019-May-15 14:30N 58°32' W 136°04'612.9
2019-May-15 14:01N 58°26' W 135°58'510.7
2019-May-15 13:30N 58°21' W 135°56'611.1
2019-May-15 13:01N 58°18' W 135°46'612.1
2019-May-15 12:30N 58°16' W 135°35'612.1
2019-May-15 11:59N 58°14' W 135°24'1515.1
2019-May-15 11:00N 58°06' W 135°00'42 1.8 340 / 31011.010.8 9.0 7.5 8.0
2019-May-14 11:00N 58°48' W 135°06'99 5.0 320 / 101010.510.8 10.0 4.4 7.0
2019-May-13 15:00N 57°18' W 133°48'17620.9 360 / 191013.510.8 7.0 3.5 7.0
2019-May-13 06:35N 54°22' W 133°52'222.4
2019-May-13 06:30N 54°20' W 133°51'1122.0
2019-May-13 06:00N 54°10' W 133°47'2170.2
2019-May-13 06:00N 54°12' W 133°48'1326.9 310 / 161014.710.8 8.0 4.6 9.0
2019-May-13 05:30N 53°60' W 133°41'7320.7
2019-May-13 02:00N 52°54' W 132°48'9523.8 320 / 191015.310.8 9.5 5.1 9.0
2019-May-12 22:00N 51°42' W 131°06'3117.9 240 / 181017.410.8 10.0 3.1 9.0
2019-May-12 20:16N 51°20' W 130°32'5122.7
2019-May-12 18:00N 50°42' W 129°36'8220.4 310 / 211017.310.8 10.0 6.810.0
2019-May-12 14:00N 49°48' W 128°00'6320.2 330 / 351013.910.8 9.0 5.7 9.0
2019-May-12 10:51N 49°10' W 126°42'822.0
2019-May-12 10:30N 49°06' W 126°32'1122.2
2019-May-12 10:00N 48°59' W 126°18'4243.8
2019-May-12 10:00N 49°00' W 126°24'1530.2 350 / 71013.210.8 11.5 8.512.0
2019-May-12 09:31N 48°53' W 126°04'1121.6
2019-May-12 09:00N 48°47' W 125°51'1121.2
2019-May-12 08:30N 48°40' W 125°38'1121.5
2019-May-12 08:00N 48°35' W 125°24'1120.6
2019-May-12 07:29N 48°32' W 125°09'1021.8
2019-May-12 07:01N 48°32' W 124°53'1120.7
2019-May-12 06:30N 48°30' W 124°38'2446.5
2019-May-12 05:59N 48°20' W 124°05'612.1
2019-May-12 05:30N 48°17' W 123°57'1112.0
2019-May-12 04:33N 48°16' W 123°40'713.3
2019-May-12 04:04N 48°15' W 123°30'217.0
2019-May-12 03:57N 48°14' W 123°28'613.1
2019-May-12 03:28N 48°09' W 123°22'613.0
2019-May-12 03:00N 48°11' W 123°13'815.5
2019-May-12 02:29N 48°13' W 123°02'817.0
2019-May-12 02:00N 48°12' W 122°49'1264.6
2019-May-12 02:00N 48°12' W 122°48'815.9 240 / 371010.810.8 12.5 9.613.0
2019-May-12 01:29N 48°06' W 122°40'918.9
2019-May-12 01:00N 47°58' W 122°34'918.6
2019-May-12 00:31N 47°50' W 122°27'917.6
2019-May-12 00:01N 47°41' W 122°27'5 9.1
2019-May-11 23:30N 47°37' W 122°23'0 0.6
2019-May-11 23:00N 47°38' W 122°23'0 0.0
2019-May-11 22:30N 47°38' W 122°23'0 0.0
2019-May-11 21:59N 47°38' W 122°23'0 0.0
2019-May-11 21:26N 47°38' W 122°23'0 0.0
2019-May-11 20:59N 47°38' W 122°23'0 0.0
2019-May-11 20:29N 47°38' W 122°23'0 0.0
2019-May-11 19:56N 47°38' W 122°23'0 0.0
2019-May-11 19:28N 47°38' W 122°23'0 0.0
2019-May-11 19:00N 47°38' W 122°23'0 0.0
2019-May-11 18:28N 47°38' W 122°23'0 0.0
2019-May-11 17:55N 47°38' W 122°23'0 0.0
2019-May-11 17:28N 47°38' W 122°23'0 0.0
2019-May-11 17:00N 47°38' W 122°23'0 0.0
2019-May-11 16:21N 47°38' W 122°23'0 0.0
2019-May-11 16:00N 47°38' W 122°23'0 0.0
2019-May-11 15:27N 47°38' W 122°23'0 0.0
2019-May-11 15:00N 47°38' W 122°23'0 0.0
2019-May-11 14:27N 47°38' W 122°23'0 0.0
2019-May-11 13:59N 47°38' W 122°23'0 0.0
2019-May-11 13:29N 47°38' W 122°23'0 0.2
2019-May-11 13:00N 47°38' W 122°23'2 3.1
2019-May-11 12:30N 47°37' W 122°25'611.4
2019-May-11 12:00N 47°43' W 122°28'713.7
2019-May-11 11:31N 47°49' W 122°28'714.0
2019-May-11 11:01N 47°56' W 122°31'713.6
2019-May-11 10:30N 48°01' W 122°38'713.5
2019-May-11 10:00N 48°08' W 122°42'713.6
2019-May-11 09:30N 48°11' W 122°50'713.7
2019-May-11 08:59N 48°12' W 123°01'713.9
2019-May-11 08:30N 48°12' W 123°11'713.4
2019-May-11 07:59N 48°10' W 123°21'612.6
2019-May-11 07:30N 48°12' W 123°29'611.2
2019-May-11 07:00N 48°18' W 123°28'612.1
2019-May-11 06:30N 48°23' W 123°23'611.1
2019-May-11 06:00N 48°24' W 123°15'5 9.2
2019-May-11 05:30N 48°28' W 123°13'612.5
2019-May-11 05:01N 48°35' W 123°14'713.1
2019-May-11 04:30N 48°41' W 123°15'713.3
2019-May-11 04:00N 48°45' W 123°07'611.8
2019-May-11 03:30N 48°50' W 123°02'815.2
2019-May-11 03:00N 48°55' W 123°10'714.9
2019-May-11 02:30N 48°60' W 123°19'612.9
2019-May-11 02:01N 49°06' W 123°24'4214.0
2019-May-11 02:00N 49°06' W 123°18'714.6 170 / 31010.310.8 20.5 3.912.0
2019-May-11 01:30N 49°13' W 123°21'713.4
2019-May-11 01:01N 49°19' W 123°16'510.9
2019-May-11 00:31N 49°19' W 123°08'2 3.3
2019-May-11 00:01N 49°17' W 123°07'0 0.1
2019-May-10 23:28N 49°17' W 123°07'0 0.0
2019-May-10 23:00N 49°17' W 123°07'0 0.0
2019-May-10 22:30N 49°17' W 123°07'0 0.0
2019-May-10 22:00N 49°17' W 123°07'0 0.0
2019-May-10 21:31N 49°17' W 123°07'0 0.0
2019-May-10 20:59N 49°17' W 123°07'0 0.0
2019-May-10 20:28N 49°17' W 123°07'0 0.0
2019-May-10 19:58N 49°17' W 123°07'0 0.0
2019-May-10 19:28N 49°17' W 123°07'0 0.0
2019-May-10 18:58N 49°17' W 123°07'0 0.0
2019-May-10 18:31N 49°17' W 123°07'0 0.0
2019-May-10 18:00N 49°17' W 123°07'0 0.0
2019-May-10 17:30N 49°17' W 123°07'0 0.0
2019-May-10 17:00N 49°17' W 123°07'0 0.0
2019-May-10 16:30N 49°17' W 123°07'0 0.0
2019-May-10 15:59N 49°17' W 123°07'0 0.0
2019-May-10 15:29N 49°17' W 123°07'  
Track history (hours):
 
Tides and Currents Weather Stations Pressure Air Temp Water Temp Dewpoint Dewpoint Depression Visibility Wind Speed Wind Dir Waves Ship Positions

Ruby Princess

Last reported at 2019-May-20 15:00 UTC. Time now 2019-May-20 16:40 UTC.
Position N 57°30' W 133°42'.

Length 289 m; draft 8.7 m.

Type: Ship. MMSI: 310567000.

Wind from 320 at 25 knots

Barometer 1006.8 mb
Air temperature 10.5 ° C
Visibility: greater than 10.8 NM
Dewpoint 7.4 ° C
Water temperature 9.0 ° C

Date/timePositionNaut miles runAvg speedWind from/ knotsBaromVisibWave heightAir tempDewpointWater temp
2019-May-20 15:00N 57°30' W 133°42'8116.3 320 / 251006.810.8 10.5 7.4 9.0
2019-May-20 10:00N 56°12' W 134°24'9122.8 330 / 201006.910.8 9.0 8.0 8.0
2019-May-20 06:00N 54°42' W 134°00'18022.5 320 / 141007.710.8 9.5 8.5 8.0
2019-May-19 22:00N 52°00' W 131°48'5319.5 230 / 111008.810.8 11.5 8.510.0
2019-May-19 19:16N 51°26' W 130°43'621.9
2019-May-19 18:59N 51°22' W 130°35'1921.9
2019-May-19 18:06N 51°09' W 130°12'221.8
2019-May-19 18:00N 51°07' W 130°10'3194.5
2019-May-19 18:00N 51°06' W 130°06'817.3 280 / 111008.410.8 11.3 8.711.0
2019-May-19 17:31N 50°60' W 129°57'1121.9
2019-May-19 17:01N 50°53' W 129°44'1121.7
2019-May-19 16:30N 50°45' W 129°31'1121.9
2019-May-19 16:00N 50°38' W 129°19'1521.7
2019-May-19 15:20N 50°28' W 129°02'722.4
2019-May-19 15:01N 50°23' W 128°54'1122.0
2019-May-19 14:31N 50°15' W 128°41'5 8.8
2019-May-19 14:00N 50°12' W 128°36'7926.5 350 / 91006.710.8 11.0 9.010.0
2019-May-19 11:00N 49°18' W 127°06'1713.4 230 / 181010.310.8 11.5 8.510.0
2019-May-19 09:45N 49°11' W 126°43'621.0
2019-May-19 09:29N 49°08' W 126°36'1020.6
2019-May-19 09:00N 49°02' W 126°23'1020.9
2019-May-19 08:30N 48°56' W 126°10'1020.7
2019-May-19 08:00N 48°50' W 125°57'1020.9
2019-May-19 07:30N 48°44' W 125°45'1020.5
2019-May-19 07:01N 48°38' W 125°32'1121.2
2019-May-19 06:30N 48°32' W 125°18'1021.4
2019-May-19 06:01N 48°32' W 125°02'3168.4
2019-May-19 06:00N 48°30' W 125°06'1327.2 300 / 141003.910.8 13.0 9.113.0
2019-May-19 05:30N 48°32' W 124°46'1121.8
2019-May-19 05:01N 48°27' W 124°31'1223.1
2019-May-19 04:31N 48°23' W 124°15'1223.0
2019-May-19 04:00N 48°18' W 123°59'1223.0
2019-May-19 03:28N 48°16' W 123°41'1122.5
2019-May-19 03:00N 48°13' W 123°26'913.7
2019-May-19 02:21N 48°11' W 123°13'718.7
2019-May-19 02:00N 48°06' W 123°06'7573.4 220 / 81004.910.8 13.6 6.112.0
2019-May-19 01:59N 48°12' W 123°01'1520.6
2019-May-19 01:17N 48°08' W 122°41'820.4
2019-May-19 00:54N 48°00' W 122°37'820.3
2019-May-19 00:30N 47°55' W 122°29'1121.4
2019-May-19 00:00N 47°44' W 122°26'713.9
2019-May-18 23:30N 47°37' W 122°23'1 0.9
2019-May-18 22:58N 47°38' W 122°23'0 0.0
2019-May-18 22:28N 47°38' W 122°23'0 0.0
2019-May-18 21:58N 47°38' W 122°23'0 0.0
2019-May-18 21:25N 47°38' W 122°23'0 0.0
2019-May-18 20:58N 47°38' W 122°23'0 0.0
2019-May-18 20:30N 47°38' W 122°23'0 0.0
2019-May-18 19:57N 47°38' W 122°23'0 0.0
2019-May-18 19:30N 47°38' W 122°23'0 0.0
2019-May-18 19:00N 47°38' W 122°23'0 0.0
2019-May-18 18:29N 47°38' W 122°23'0 0.0
2019-May-18 17:56N 47°38' W 122°23'0 0.0
2019-May-18 17:29N 47°38' W 122°23'0 0.0
2019-May-18 16:57N 47°38' W 122°23'0 0.0
2019-May-18 16:29N 47°38' W 122°23'0 0.0
2019-May-18 15:58N 47°38' W 122°23'0 0.0
2019-May-18 15:28N 47°38' W 122°23'0 0.0
2019-May-18 14:58N 47°38' W 122°23'0 0.0
2019-May-18 14:25N 47°38' W 122°23'0 0.0
2019-May-18 13:52N 47°38' W 122°23'0 0.0
2019-May-18 13:30N 47°38' W 122°23'0 0.3
2019-May-18 13:01N 47°38' W 122°23'2 3.6
2019-May-18 12:30N 47°37' W 122°26'612.1
2019-May-18 12:00N 47°43' W 122°28'815.4
2019-May-18 11:30N 47°51' W 122°28'814.9
2019-May-18 11:00N 47°57' W 122°34'815.4
2019-May-18 10:27N 48°05' W 122°40'815.0
2019-May-18 09:55N 48°11' W 122°48'815.8
2019-May-18 09:24N 48°12' W 123°00'615.6
2019-May-18 09:00N 48°12' W 123°10'816.3
2019-May-18 08:31N 48°10' W 123°22'1012.3
2019-May-18 07:41N 48°20' W 123°27'313.1
2019-May-18 07:29N 48°22' W 123°25'3 6.9
2019-May-18 07:00N 48°25' W 123°24'0 0.3
2019-May-18 06:30N 48°25' W 123°23'0 0.0
2019-May-18 06:00N 48°25' W 123°23'0 0.0
2019-May-18 05:30N 48°25' W 123°23'0 0.0
2019-May-18 05:00N 48°25' W 123°23'0 0.0
2019-May-18 04:29N 48°25' W 123°23'0 0.0
2019-May-18 03:59N 48°25' W 123°23'0 0.0
2019-May-18 03:29N 48°25' W 123°23'0 0.0
2019-May-18 02:59N 48°25' W 123°23'0 0.0
2019-May-18 02:28N 48°25' W 123°23'0 0.0
2019-May-18 01:59N 48°25' W 123°23'1 1.5
2019-May-18 01:30N 48°25' W 123°24'4 7.6
2019-May-18 01:00N 48°21' W 123°24'1416.1
2019-May-18 00:07N 48°13' W 123°42'221.1
2019-May-18 00:00N 48°13' W 123°46'1020.0
2019-May-17 23:29N 48°16' W 124°01'918.7
2019-May-17 23:00N 48°19' W 124°13'918.9
2019-May-17 22:30N 48°23' W 124°26'1020.0
2019-May-17 22:01N 48°28' W 124°39'1019.7
2019-May-17 21:31N 48°29' W 124°54'1019.9
2019-May-17 21:01N 48°29' W 125°09'1019.3
2019-May-17 20:31N 48°34' W 125°22'1020.8
2019-May-17 20:00N 48°39' W 125°35'1019.7
2019-May-17 19:30N 48°44' W 125°48'1019.1
2019-May-17 19:01N 48°49' W 126°01'1020.7
2019-May-17 18:31N 48°55' W 126°13'1121.9
2019-May-17 18:00N 49°02' W 126°27'3170.4
2019-May-17 18:00N 49°00' W 126°24'1427.1 120 / 191009.910.8 11.5 6.212.0
2019-May-17 17:28N 49°09' W 126°41'7120.5
2019-May-17 14:00N 49°54' W 128°06'7318.3 150 / 161005.910.8 10.0 5.6 9.0
2019-May-17 10:00N 50°54' W 129°12'8643.2 190 / 51004.710.8 9.5 5.111.0
2019-May-17 08:00N 52°12' W 130°12'7917.6 180 / 61003.410.8 9.4 7.111.0
2019-May-17 03:29N 53°26' W 131°01'1122.3
2019-May-17 03:00N 53°36' W 131°01'6666.0
2019-May-17 03:00N 53°30' W 131°00'1836.2 040 / 101003.410.8 9.0 8.010.0
2019-May-17 02:30N 53°47' W 131°02'1122.8
2019-May-17 02:01N 53°59' W 131°02'1122.6
2019-May-17 01:31N 54°10' W 131°02'1121.9
2019-May-17 01:01N 54°21' W 131°08'1121.5
2019-May-17 00:30N 54°30' W 131°18'1422.1
2019-May-16 23:52N 54°41' W 131°32'189 9.1
2019-May-16 03:00N 57°18' W 134°42'6419.1 160 / 141011.110.8 9.9 6.510.0
2019-May-15 23:39N 58°15' W 135°36'319.9
2019-May-15 23:29N 58°17' W 135°41'918.9
2019-May-15 23:00N 58°20' W 135°57'713.7
2019-May-15 22:30N 58°27' W 136°01'917.2
2019-May-15 22:00N 58°35' W 136°04'1020.0
2019-May-15 21:30N 58°43' W 136°15'1120.2
2019-May-15 20:59N 58°50' W 136°31'10 1.7
2019-May-15 15:17N 58°44' W 136°16'518.9
2019-May-15 15:00N 58°40' W 136°10'3192.3
2019-May-15 15:00N 58°42' W 136°12'1123.4 270 / 91012.110.8 8.5 7.4 9.0
2019-May-15 14:30N 58°32' W 136°04'612.9
2019-May-15 14:01N 58°26' W 135°58'510.7
2019-May-15 13:30N 58°21' W 135°56'611.1
2019-May-15 13:01N 58°18' W 135°46'612.1
2019-May-15 12:30N 58°16' W 135°35'612.1
2019-May-15 11:59N 58°14' W 135°24'1515.1
2019-May-15 11:00N 58°06' W 135°00'42 1.8 340 / 31011.010.8 9.0 7.5 8.0
2019-May-14 11:00N 58°48' W 135°06'99 5.0 320 / 101010.510.8 10.0 4.4 7.0
2019-May-13 15:00N 57°18' W 133°48'17620.9 360 / 191013.510.8 7.0 3.5 7.0
2019-May-13 06:35N 54°22' W 133°52'222.4
2019-May-13 06:30N 54°20' W 133°51'1122.0
2019-May-13 06:00N 54°10' W 133°47'2170.2
2019-May-13 06:00N 54°12' W 133°48'1326.9 310 / 161014.710.8 8.0 4.6 9.0
2019-May-13 05:30N 53°60' W 133°41'7320.7
2019-May-13 02:00N 52°54' W 132°48'9523.8 320 / 191015.310.8 9.5 5.1 9.0
2019-May-12 22:00N 51°42' W 131°06'3117.9 240 / 181017.410.8 10.0 3.1 9.0
2019-May-12 20:16N 51°20' W 130°32'5122.7
2019-May-12 18:00N 50°42' W 129°36'8220.4 310 / 211017.310.8 10.0 6.810.0
2019-May-12 14:00N 49°48' W 128°00'6320.2 330 / 351013.910.8 9.0 5.7 9.0
2019-May-12 10:51N 49°10' W 126°42'822.0
2019-May-12 10:30N 49°06' W 126°32'1122.2
2019-May-12 10:00N 48°59' W 126°18'4243.8
2019-May-12 10:00N 49°00' W 126°24'1530.2 350 / 71013.210.8 11.5 8.512.0
2019-May-12 09:31N 48°53' W 126°04'1121.6
2019-May-12 09:00N 48°47' W 125°51'1121.2
2019-May-12 08:30N 48°40' W 125°38'1121.5
2019-May-12 08:00N 48°35' W 125°24'1120.6
2019-May-12 07:29N 48°32' W 125°09'1021.8
2019-May-12 07:01N 48°32' W 124°53'1120.7
2019-May-12 06:30N 48°30' W 124°38'2446.5
2019-May-12 05:59N 48°20' W 124°05'612.1
2019-May-12 05:30N 48°17' W 123°57'1112.0
2019-May-12 04:33N 48°16' W 123°40'713.3
2019-May-12 04:04N 48°15' W 123°30'217.0
2019-May-12 03:57N 48°14' W 123°28'613.1
2019-May-12 03:28N 48°09' W 123°22'613.0
2019-May-12 03:00N 48°11' W 123°13'815.5
2019-May-12 02:29N 48°13' W 123°02'817.0
2019-May-12 02:00N 48°12' W 122°49'1264.6
2019-May-12 02:00N 48°12' W 122°48'815.9 240 / 371010.810.8 12.5 9.613.0
2019-May-12 01:29N 48°06' W 122°40'918.9
2019-May-12 01:00N 47°58' W 122°34'918.6
2019-May-12 00:31N 47°50' W 122°27'917.6
2019-May-12 00:01N 47°41' W 122°27'5 9.1
2019-May-11 23:30N 47°37' W 122°23'0 0.6
2019-May-11 23:00N 47°38' W 122°23'0 0.0
2019-May-11 22:30N 47°38' W 122°23'0 0.0
2019-May-11 21:59N 47°38' W 122°23'0 0.0
2019-May-11 21:26N 47°38' W 122°23'0 0.0
2019-May-11 20:59N 47°38' W 122°23'0 0.0
2019-May-11 20:29N 47°38' W 122°23'0 0.0
2019-May-11 19:56N 47°38' W 122°23'0 0.0
2019-May-11 19:28N 47°38' W 122°23'0 0.0
2019-May-11 19:00N 47°38' W 122°23'0 0.0
2019-May-11 18:28N 47°38' W 122°23'0 0.0
2019-May-11 17:55N 47°38' W 122°23'0 0.0
2019-May-11 17:28N 47°38' W 122°23'0 0.0
2019-May-11 17:00N 47°38' W 122°23'0 0.0
2019-May-11 16:21N 47°38' W 122°23'0 0.0
2019-May-11 16:00N 47°38' W 122°23'0 0.0
2019-May-11 15:27N 47°38' W 122°23'0 0.0
2019-May-11 15:00N 47°38' W 122°23'0 0.0
2019-May-11 14:27N 47°38' W 122°23'0 0.0
2019-May-11 13:59N 47°38' W 122°23'0 0.0
2019-May-11 13:29N 47°38' W 122°23'0 0.2
2019-May-11 13:00N 47°38' W 122°23'2 3.1
2019-May-11 12:30N 47°37' W 122°25'611.4
2019-May-11 12:00N 47°43' W 122°28'713.7
2019-May-11 11:31N 47°49' W 122°28'714.0
2019-May-11 11:01N 47°56' W 122°31'713.6
2019-May-11 10:30N 48°01' W 122°38'713.5
2019-May-11 10:00N 48°08' W 122°42'713.6
2019-May-11 09:30N 48°11' W 122°50'713.7
2019-May-11 08:59N 48°12' W 123°01'713.9
2019-May-11 08:30N 48°12' W 123°11'713.4
2019-May-11 07:59N 48°10' W 123°21'612.6
2019-May-11 07:30N 48°12' W 123°29'611.2
2019-May-11 07:00N 48°18' W 123°28'612.1
2019-May-11 06:30N 48°23' W 123°23'611.1
2019-May-11 06:00N 48°24' W 123°15'5 9.2
2019-May-11 05:30N 48°28' W 123°13'612.5
2019-May-11 05:01N 48°35' W 123°14'713.1
2019-May-11 04:30N 48°41' W 123°15'713.3
2019-May-11 04:00N 48°45' W 123°07'611.8
2019-May-11 03:30N 48°50' W 123°02'815.2
2019-May-11 03:00N 48°55' W 123°10'714.9
2019-May-11 02:30N 48°60' W 123°19'612.9
2019-May-11 02:01N 49°06' W 123°24'4214.0
2019-May-11 02:00N 49°06' W 123°18'714.6 170 / 31010.310.8 20.5 3.912.0
2019-May-11 01:30N 49°13' W 123°21'713.4
2019-May-11 01:01N 49°19' W 123°16'510.9
2019-May-11 00:31N 49°19' W 123°08'2 3.3
2019-May-11 00:01N 49°17' W 123°07'0 0.1
2019-May-10 23:28N 49°17' W 123°07'0 0.0
2019-May-10 23:00N 49°17' W 123°07'0 0.0
2019-May-10 22:30N 49°17' W 123°07'0 0.0
2019-May-10 22:00N 49°17' W 123°07'0 0.0
2019-May-10 21:31N 49°17' W 123°07'0 0.0
2019-May-10 20:59N 49°17' W 123°07'0 0.0
2019-May-10 20:28N 49°17' W 123°07'0 0.0
2019-May-10 19:58N 49°17' W 123°07'0 0.0
2019-May-10 19:28N 49°17' W 123°07'0 0.0
2019-May-10 18:58N 49°17' W 123°07'0 0.0
2019-May-10 18:31N 49°17' W 123°07'0 0.0
2019-May-10 18:00N 49°17' W 123°07'0 0.0
2019-May-10 17:30N 49°17' W 123°07'0 0.0
2019-May-10 17:00N 49°17' W 123°07'0 0.0
2019-May-10 16:30N 49°17' W 123°07'0 0.0
2019-May-10 15:59N 49°17' W 123°07'0 0.0
2019-May-10 15:29N 49°17' W 123°07'  

Dump ship's entire track history